createdAt,value
2023-04-30T00:01:30.659Z,20.60
2023-04-30T00:06:25.538Z,21.08
2023-04-30T00:11:20.489Z,20.13
2023-04-30T00:16:13.241Z,19.45
2023-04-30T00:21:07.134Z,20.02
2023-04-30T00:26:00.575Z,18.15
2023-04-30T00:30:54.665Z,18.98
2023-04-30T00:35:47.959Z,20.02
2023-04-30T00:40:42.363Z,18.55
2023-04-30T00:45:36.421Z,14.95
2023-04-30T00:50:30.254Z,14.40
2023-04-30T00:55:23.383Z,16.17
2023-04-30T01:00:17.080Z,16.92
2023-04-30T01:05:11.179Z,19.42
2023-04-30T01:10:05.160Z,17.15
2023-04-30T01:15:07.154Z,17.88
2023-04-30T01:20:01.336Z,18.05
2023-04-30T01:25:12.945Z,16.98
2023-04-30T01:30:06.498Z,16.27
2023-04-30T01:35:00.595Z,16.05
2023-04-30T01:39:54.809Z,17.42
2023-04-30T01:45:05.517Z,17.70
2023-04-30T01:50:00.947Z,18.75
2023-04-30T01:54:59.805Z,17.25
2023-04-30T01:59:53.404Z,17.15
2023-04-30T02:04:46.076Z,18.90
2023-04-30T02:09:40.695Z,18.17
2023-04-30T02:14:33.874Z,19.80
2023-04-30T02:19:27.442Z,19.08
2023-04-30T02:24:22.022Z,14.77
2023-04-30T02:29:15.637Z,14.68
2023-04-30T02:34:11.660Z,17.02
2023-04-30T02:39:05.593Z,14.82
2023-04-30T02:43:58.285Z,17.08
2023-04-30T02:48:51.927Z,15.75
2023-04-30T02:53:44.870Z,17.83
2023-04-30T02:58:38.275Z,15.60
2023-04-30T03:03:31.096Z,16.40
2023-04-30T03:08:26.306Z,17.35
2023-04-30T03:13:20.197Z,19.48
2023-04-30T03:18:13.054Z,19.60
2023-04-30T03:23:06.656Z,20.52
2023-04-30T03:28:00.549Z,19.55
2023-04-30T03:32:54.189Z,18.73
2023-04-30T03:37:46.825Z,18.90
2023-04-30T03:42:41.017Z,18.80
2023-04-30T03:47:34.333Z,19.83
2023-04-30T03:52:28.208Z,19.13
2023-04-30T03:57:21.516Z,20.77
2023-04-30T04:02:13.880Z,22.02
2023-04-30T04:07:08.582Z,23.27
2023-04-30T04:12:02.305Z,24.27
2023-04-30T04:16:55.584Z,22.38
2023-04-30T04:21:49.520Z,20.65
2023-04-30T04:26:44.009Z,20.98
2023-04-30T04:31:39.019Z,21.50
2023-04-30T04:36:34.668Z,20.63
2023-04-30T04:41:27.787Z,19.42
2023-04-30T04:46:21.893Z,22.48
2023-04-30T04:51:14.292Z,20.00
2023-04-30T04:56:08.761Z,21.63
2023-04-30T05:01:02.188Z,23.13
2023-04-30T05:05:55.513Z,22.27
2023-04-30T05:10:48.526Z,20.85
2023-04-30T05:15:40.952Z,21.23
2023-04-30T05:20:35.811Z,22.13
2023-04-30T05:25:31.430Z,20.77
2023-04-30T05:30:25.174Z,22.40
2023-04-30T05:35:18.908Z,23.10
2023-04-30T05:40:14.368Z,20.67
2023-04-30T05:45:09.079Z,21.83
2023-04-30T05:50:02.610Z,21.38
2023-04-30T05:54:55.487Z,25.95
2023-04-30T05:59:49.156Z,22.05
2023-04-30T06:04:44.134Z,18.63
2023-04-30T06:09:37.240Z,20.25
2023-04-30T06:14:32.348Z,19.40
2023-04-30T06:19:25.259Z,19.73
2023-04-30T06:24:18.669Z,18.83
2023-04-30T06:29:13.048Z,19.83
2023-04-30T06:34:07.064Z,20.17
2023-04-30T06:38:59.390Z,19.15
2023-04-30T06:43:54.092Z,19.92
2023-04-30T06:48:47.694Z,18.08
2023-04-30T06:53:42.321Z,18.52
2023-04-30T06:58:35.539Z,18.80
2023-04-30T07:03:29.317Z,17.20
2023-04-30T07:08:23.090Z,17.05
2023-04-30T07:13:17.063Z,17.98
2023-04-30T07:18:10.908Z,17.50
2023-04-30T07:23:05.120Z,16.40
2023-04-30T07:27:58.762Z,15.98
2023-04-30T07:32:52.342Z,16.30
2023-04-30T07:37:45.321Z,16.45
2023-04-30T07:42:39.772Z,16.58
2023-04-30T07:47:33.605Z,16.30
2023-04-30T07:52:27.048Z,14.70
2023-04-30T07:57:19.996Z,14.75
2023-04-30T08:02:13.080Z,15.18
2023-04-30T08:07:06.405Z,13.15
2023-04-30T08:12:00.463Z,14.18
2023-04-30T08:16:54.612Z,12.70
2023-04-30T08:21:47.337Z,13.90
2023-04-30T08:26:41.391Z,14.63
2023-04-30T08:31:35.633Z,12.50
2023-04-30T08:36:29.511Z,13.80
2023-04-30T08:41:27.014Z,13.05
2023-04-30T08:46:23.729Z,13.15
2023-04-30T08:51:17.802Z,13.57
2023-04-30T08:56:11.976Z,14.10
2023-04-30T09:01:07.707Z,13.55
2023-04-30T09:06:00.550Z,13.27
2023-04-30T09:10:54.262Z,14.70
2023-04-30T09:15:52.871Z,13.50
2023-04-30T09:21:02.266Z,12.15
2023-04-30T09:25:55.558Z,14.10
2023-04-30T09:30:49.296Z,10.52
2023-04-30T09:35:44.184Z,11.32
2023-04-30T09:40:41.845Z,11.75
2023-04-30T09:45:42.319Z,11.77
2023-04-30T09:50:42.741Z,9.98
2023-04-30T09:55:37.492Z,8.00
2023-04-30T10:00:31.167Z,6.18
2023-04-30T10:05:24.421Z,5.90
2023-04-30T10:10:18.161Z,6.95
2023-04-30T10:15:12.574Z,5.35
2023-04-30T10:20:08.947Z,4.18
2023-04-30T10:25:03.369Z,5.90
2023-04-30T10:29:57.640Z,5.80
2023-04-30T10:34:55.707Z,6.07
2023-04-30T10:39:50.278Z,4.95
2023-04-30T10:44:43.082Z,4.78
2023-04-30T10:49:40.035Z,4.78
2023-04-30T10:54:36.311Z,5.15
2023-04-30T10:59:35.392Z,5.10
2023-04-30T11:04:28.628Z,5.93
2023-04-30T11:09:44.348Z,6.07
2023-04-30T11:15:05.465Z,5.40
2023-04-30T11:20:01.529Z,6.65
2023-04-30T11:24:55.453Z,5.95
2023-04-30T11:29:48.819Z,6.05
2023-04-30T11:34:45.354Z,6.35
2023-04-30T11:39:39.499Z,6.45
2023-04-30T11:44:33.281Z,6.53
2023-04-30T11:49:27.217Z,6.03
2023-04-30T11:54:20.377Z,6.97
2023-04-30T11:59:14.102Z,6.10
2023-04-30T12:04:10.736Z,6.43
2023-04-30T12:09:12.027Z,6.15
2023-04-30T12:14:13.162Z,5.60
2023-04-30T12:19:06.403Z,5.32
2023-04-30T12:24:02.765Z,5.82
2023-04-30T12:28:56.442Z,5.88
2023-04-30T12:33:57.510Z,5.70
2023-04-30T12:38:49.901Z,5.05
2023-04-30T12:43:44.177Z,5.80
2023-04-30T12:48:47.876Z,6.47
2023-04-30T12:54:03.714Z,6.55
2023-04-30T12:58:57.307Z,6.75
2023-04-30T13:03:49.850Z,5.53
2023-04-30T13:13:43.027Z,5.97
2023-04-30T13:18:38.002Z,5.78
2023-04-30T13:23:35.849Z,6.28
2023-04-30T13:28:32.096Z,5.38
2023-04-30T13:33:25.642Z,5.90
2023-04-30T13:38:19.870Z,3.88
2023-04-30T13:43:13.947Z,3.90
2023-04-30T13:48:09.166Z,4.13
2023-04-30T13:53:02.789Z,4.35
2023-04-30T13:57:57.518Z,5.43
2023-04-30T14:02:53.018Z,4.75
2023-04-30T14:07:47.336Z,3.75
2023-04-30T14:12:40.149Z,2.78
2023-04-30T14:17:33.724Z,2.72
2023-04-30T14:22:27.840Z,3.05
2023-04-30T14:27:22.230Z,2.38
2023-04-30T14:32:16.303Z,3.10
2023-04-30T14:37:09.217Z,2.80
2023-04-30T14:42:03.840Z,3.20
2023-04-30T14:46:57.526Z,3.25
2023-04-30T14:51:51.251Z,3.58
2023-04-30T14:56:44.651Z,3.30
2023-04-30T15:01:38.493Z,3.20
2023-04-30T15:06:32.171Z,2.90
2023-04-30T15:11:25.929Z,3.42
2023-04-30T15:16:20.046Z,3.78
2023-04-30T15:21:14.212Z,3.42
2023-04-30T15:26:07.713Z,3.10
2023-04-30T15:31:04.545Z,3.58
2023-04-30T15:35:58.478Z,3.60
2023-04-30T15:40:52.544Z,3.67
2023-04-30T15:45:46.828Z,3.42
2023-04-30T15:50:40.764Z,3.33
2023-04-30T15:55:35.085Z,3.63
2023-04-30T16:00:29.777Z,3.60
2023-04-30T16:05:22.501Z,3.63
2023-04-30T16:10:16.135Z,3.35
2023-04-30T16:15:10.873Z,3.63
2023-04-30T16:20:03.914Z,3.97
2023-04-30T16:24:57.043Z,3.45
2023-04-30T16:29:50.739Z,3.75
2023-04-30T16:34:44.807Z,3.17
2023-04-30T16:39:38.048Z,3.35
2023-04-30T16:44:30.724Z,3.20
2023-04-30T16:49:23.910Z,3.50
2023-04-30T16:54:17.387Z,3.20
2023-04-30T16:59:11.513Z,3.60
2023-04-30T17:04:05.900Z,3.47
2023-04-30T17:08:59.838Z,3.20
2023-04-30T17:13:55.581Z,3.28
2023-04-30T17:18:49.297Z,3.65
2023-04-30T17:23:42.856Z,4.00
2023-04-30T17:28:37.570Z,4.07
2023-04-30T17:33:30.716Z,3.83
2023-04-30T17:38:24.061Z,3.55
2023-04-30T17:43:17.949Z,3.92
2023-04-30T17:48:11.286Z,4.50
2023-04-30T17:53:04.189Z,4.28
2023-04-30T17:57:59.850Z,4.05
2023-04-30T18:02:52.306Z,4.75
2023-04-30T18:07:45.967Z,4.28
2023-04-30T18:12:40.291Z,3.88
2023-04-30T18:17:35.628Z,3.67
2023-04-30T18:22:30.564Z,3.47
2023-04-30T18:27:23.312Z,3.40
2023-04-30T18:32:17.588Z,3.38
2023-04-30T18:37:11.341Z,3.38
2023-04-30T18:42:04.274Z,2.60
2023-04-30T18:46:58.452Z,3.60
2023-04-30T18:51:51.462Z,3.30
2023-04-30T18:56:49.481Z,3.65
2023-04-30T19:01:43.251Z,3.13
2023-04-30T19:06:36.681Z,3.63
2023-04-30T19:11:31.144Z,3.25
2023-04-30T19:16:26.205Z,4.00
2023-04-30T19:21:19.822Z,3.80
2023-04-30T19:26:12.714Z,3.10
2023-04-30T19:31:06.795Z,3.67
2023-04-30T19:36:03.093Z,3.45
2023-04-30T19:40:57.299Z,3.72
2023-04-30T19:45:59.002Z,3.60
2023-04-30T19:50:55.857Z,3.00
2023-04-30T19:55:48.182Z,4.10
2023-04-30T20:00:45.599Z,3.42
2023-04-30T20:05:40.208Z,4.70
2023-04-30T20:10:37.398Z,4.93
2023-04-30T20:15:30.955Z,4.22
2023-04-30T20:20:25.143Z,4.18
2023-04-30T20:25:19.702Z,4.50
2023-04-30T20:30:14.306Z,4.88
2023-04-30T20:35:11.281Z,4.35
2023-04-30T20:40:08.998Z,4.47
2023-04-30T20:45:05.485Z,4.00
2023-04-30T20:50:00.062Z,4.32
2023-04-30T20:54:57.638Z,4.40
2023-04-30T20:59:50.996Z,4.55
2023-04-30T21:04:44.160Z,4.72
2023-04-30T21:09:39.389Z,4.10
2023-04-30T21:14:33.015Z,4.88
2023-04-30T21:19:28.211Z,4.65
2023-04-30T21:24:22.000Z,4.93
2023-04-30T21:29:16.182Z,5.60
2023-04-30T21:34:10.017Z,4.97
2023-04-30T21:39:04.978Z,4.75
2023-04-30T21:43:59.109Z,4.85
2023-04-30T21:48:51.488Z,5.30
2023-04-30T21:53:46.108Z,5.68
2023-04-30T21:58:40.084Z,6.20
2023-04-30T22:03:34.475Z,5.70
2023-04-30T22:08:28.568Z,6.22
2023-04-30T22:13:23.612Z,5.90
2023-04-30T22:18:17.689Z,6.95
2023-04-30T22:23:12.451Z,6.53
2023-04-30T22:28:06.716Z,6.78
2023-04-30T22:33:00.215Z,7.45
2023-04-30T22:37:53.904Z,6.65
2023-04-30T22:42:49.360Z,7.28
2023-04-30T22:47:42.694Z,7.03
2023-04-30T22:52:35.534Z,7.13
2023-04-30T22:57:29.789Z,7.13
2023-04-30T23:02:23.238Z,6.60
2023-04-30T23:07:16.895Z,7.82
2023-04-30T23:12:10.216Z,7.80
2023-04-30T23:17:03.816Z,8.02
2023-04-30T23:21:57.979Z,8.48
2023-04-30T23:26:51.892Z,8.10
2023-04-30T23:31:45.083Z,8.75
2023-04-30T23:36:39.281Z,8.95
2023-04-30T23:41:32.864Z,9.18
2023-04-30T23:46:27.526Z,11.00
2023-04-30T23:51:21.973Z,9.93
2023-04-30T23:56:15.519Z,11.73
